createdAt,value
2022-09-29T00:00:22.572Z,20.70
2022-09-29T00:02:49.353Z,20.70
2022-09-29T00:05:16.190Z,20.70
2022-09-29T00:07:42.902Z,20.70
2022-09-29T00:10:09.734Z,20.70
2022-09-29T00:12:36.549Z,20.70
2022-09-29T00:15:05.212Z,20.70
2022-09-29T00:17:31.946Z,20.70
2022-09-29T00:19:58.685Z,20.70
2022-09-29T00:22:25.439Z,20.60
2022-09-29T00:24:52.169Z,20.70
2022-09-29T00:27:19.142Z,20.60
2022-09-29T00:29:46.127Z,20.60
2022-09-29T00:32:12.852Z,20.70
2022-09-29T00:34:39.603Z,20.70
2022-09-29T00:37:06.703Z,20.70
2022-09-29T00:39:33.408Z,20.70
2022-09-29T00:42:00.116Z,20.70
2022-09-29T00:44:55.579Z,20.60
2022-09-29T00:47:22.289Z,20.70
2022-09-29T00:49:51.780Z,20.70
2022-09-29T00:52:25.947Z,20.70
2022-09-29T00:54:55.912Z,20.60
2022-09-29T00:57:25.544Z,20.60
2022-09-29T01:00:18.566Z,20.60
2022-09-29T01:02:55.997Z,20.60
2022-09-29T01:05:32.649Z,20.60
2022-09-29T01:08:03.068Z,20.60
2022-09-29T01:10:29.803Z,20.60
2022-09-29T01:12:56.672Z,20.60
2022-09-29T01:15:23.387Z,20.60
2022-09-29T01:17:50.139Z,20.60
2022-09-29T01:20:18.991Z,20.60
2022-09-29T01:22:57.843Z,20.60
2022-09-29T01:25:36.987Z,20.60
2022-09-29T01:28:25.309Z,20.60
2022-09-29T01:31:16.127Z,20.60
2022-09-29T01:34:01.207Z,20.60
2022-09-29T01:36:37.837Z,20.60
2022-09-29T01:39:34.862Z,20.60
2022-09-29T01:42:19.983Z,20.60
2022-09-29T01:44:49.935Z,20.60
2022-09-29T01:47:31.457Z,20.60
2022-09-29T01:50:06.537Z,20.60
2022-09-29T01:52:34.391Z,20.60
2022-09-29T01:55:02.690Z,20.60
2022-09-29T01:57:43.071Z,20.50
2022-09-29T02:00:12.765Z,20.60
2022-09-29T02:02:55.553Z,20.60
2022-09-29T02:05:28.298Z,20.50
2022-09-29T02:07:56.321Z,20.50
2022-09-29T02:10:29.073Z,20.60
2022-09-29T02:12:56.948Z,20.60
2022-09-29T02:15:27.130Z,20.60
2022-09-29T02:17:54.614Z,20.50
2022-09-29T02:20:22.494Z,20.50
2022-09-29T02:22:49.219Z,20.50
2022-09-29T02:25:17.290Z,20.50
2022-09-29T02:27:44.825Z,20.50
2022-09-29T02:30:12.697Z,20.60
2022-09-29T02:32:39.498Z,20.60
2022-09-29T02:35:07.367Z,20.50
2022-09-29T02:37:54.596Z,20.60
2022-09-29T02:40:32.483Z,20.60
2022-09-29T02:43:10.380Z,20.50
2022-09-29T02:45:58.336Z,20.60
2022-09-29T02:48:25.056Z,20.50
2022-09-29T02:51:20.523Z,20.50
2022-09-29T02:54:03.513Z,20.50
2022-09-29T02:56:44.361Z,20.50
2022-09-29T02:59:14.337Z,20.50
2022-09-29T03:01:48.909Z,20.50
2022-09-29T03:04:15.700Z,20.50
2022-09-29T03:06:43.708Z,20.50
2022-09-29T03:09:10.506Z,20.40
2022-09-29T03:11:37.221Z,20.40
2022-09-29T03:14:04.349Z,20.40
2022-09-29T03:16:31.121Z,20.50
2022-09-29T03:18:58.023Z,20.50
2022-09-29T03:21:24.723Z,20.50
2022-09-29T03:23:56.746Z,20.40
2022-09-29T03:26:24.375Z,20.50
2022-09-29T03:28:51.653Z,20.50
2022-09-29T03:31:18.618Z,20.50
2022-09-29T03:33:46.517Z,20.50
2022-09-29T03:36:13.280Z,20.50
2022-09-29T03:38:40.103Z,20.50
2022-09-29T03:41:06.998Z,20.50
2022-09-29T03:43:33.751Z,20.50
2022-09-29T03:46:00.848Z,20.40
2022-09-29T03:48:31.374Z,20.40
2022-09-29T03:50:58.236Z,20.50
2022-09-29T03:53:24.987Z,20.40
2022-09-29T03:55:51.723Z,20.40
2022-09-29T03:58:18.568Z,20.40
2022-09-29T04:00:47.272Z,20.40
2022-09-29T04:03:14.014Z,20.40
2022-09-29T04:05:40.893Z,20.40
2022-09-29T04:08:08.198Z,20.40
2022-09-29T04:10:38.286Z,20.40
2022-09-29T04:13:05.221Z,20.40
2022-09-29T04:15:32.138Z,20.40
2022-09-29T04:17:58.924Z,20.40
2022-09-29T04:20:25.877Z,20.40
2022-09-29T04:22:52.686Z,20.40
2022-09-29T04:25:19.627Z,20.40
2022-09-29T04:27:46.757Z,20.40
2022-09-29T04:30:15.268Z,20.40
2022-09-29T04:32:42.346Z,20.40
2022-09-29T04:35:09.263Z,20.40
2022-09-29T04:37:36.037Z,20.40
2022-09-29T04:40:03.709Z,20.40
2022-09-29T04:42:30.461Z,20.40
2022-09-29T04:44:57.227Z,20.30
2022-09-29T04:47:23.968Z,20.40
2022-09-29T04:49:50.776Z,20.40
2022-09-29T04:52:18.595Z,20.50
2022-09-29T04:54:45.307Z,20.50
2022-09-29T04:57:12.068Z,20.50
2022-09-29T04:59:38.781Z,20.40
2022-09-29T05:02:05.647Z,20.50
2022-09-29T05:04:32.425Z,20.50
2022-09-29T05:06:59.155Z,20.50
2022-09-29T05:09:28.765Z,20.50
2022-09-29T05:11:58.018Z,20.50
2022-09-29T05:14:24.802Z,20.50
2022-09-29T05:16:51.519Z,20.50
2022-09-29T05:19:20.008Z,20.50
2022-09-29T05:21:48.526Z,20.50
2022-09-29T05:24:15.279Z,20.50
2022-09-29T05:26:42.009Z,20.60
2022-09-29T05:29:08.726Z,20.50
2022-09-29T05:31:35.513Z,20.60
2022-09-29T05:34:02.235Z,20.60
2022-09-29T05:36:29.007Z,20.60
2022-09-29T05:38:56.338Z,20.50
2022-09-29T05:41:23.466Z,20.50
2022-09-29T05:43:51.487Z,20.60
2022-09-29T05:46:20.574Z,20.60
2022-09-29T05:48:48.629Z,20.70
2022-09-29T05:51:21.963Z,20.70
2022-09-29T05:53:50.423Z,20.70
2022-09-29T05:56:21.842Z,20.70
2022-09-29T05:58:50.199Z,20.70
2022-09-29T06:01:21.792Z,20.70
2022-09-29T06:03:51.438Z,20.70
2022-09-29T06:06:26.465Z,20.70
2022-09-29T06:08:53.359Z,20.60
2022-09-29T06:11:22.659Z,20.60
2022-09-29T06:13:51.774Z,20.60
2022-09-29T06:16:20.508Z,20.60
2022-09-29T06:18:48.472Z,20.60
2022-09-29T06:21:21.288Z,20.70
2022-09-29T06:23:48.415Z,20.70
2022-09-29T06:26:20.262Z,20.60
2022-09-29T06:28:52.243Z,20.70
2022-09-29T06:31:21.290Z,20.70
2022-09-29T06:33:48.110Z,20.70
2022-09-29T06:36:54.076Z,20.70
2022-09-29T06:39:22.350Z,20.70
2022-09-29T06:41:53.465Z,20.60
2022-09-29T06:44:28.047Z,20.70
2022-09-29T06:46:54.940Z,20.70
2022-09-29T06:49:22.892Z,20.70
2022-09-29T06:51:51.021Z,20.70
2022-09-29T06:54:20.713Z,20.70
2022-09-29T06:56:49.094Z,20.60
2022-09-29T06:59:16.001Z,20.70
2022-09-29T07:01:42.844Z,20.70
2022-09-29T07:04:09.692Z,20.70
2022-09-29T07:06:36.406Z,20.70
2022-09-29T07:09:03.410Z,20.70
2022-09-29T07:11:30.168Z,20.70
2022-09-29T07:13:57.072Z,20.70
2022-09-29T07:16:24.711Z,20.70
2022-09-29T07:18:52.411Z,20.60
2022-09-29T07:21:19.236Z,20.70
2022-09-29T07:23:46.541Z,20.70
2022-09-29T07:26:13.587Z,20.70
2022-09-29T07:28:40.600Z,20.70
2022-09-29T07:31:16.181Z,20.70
2022-09-29T07:33:44.058Z,20.70
2022-09-29T07:36:11.028Z,20.70
2022-09-29T07:38:37.843Z,20.70
2022-09-29T07:41:06.664Z,20.70
2022-09-29T07:43:33.597Z,20.70
2022-09-29T07:46:00.496Z,20.70
2022-09-29T07:48:31.379Z,20.70
2022-09-29T07:51:05.465Z,20.70
2022-09-29T07:53:32.354Z,20.70
2022-09-29T07:56:06.582Z,20.60
2022-09-29T07:58:33.583Z,20.70
2022-09-29T08:01:01.410Z,20.60
2022-09-29T08:03:30.132Z,20.70
2022-09-29T08:05:57.885Z,20.60
2022-09-29T08:08:26.492Z,20.70
2022-09-29T08:10:54.088Z,20.70
2022-09-29T08:13:21.414Z,20.60
2022-09-29T08:15:48.153Z,20.70
2022-09-29T08:18:14.905Z,20.60
2022-09-29T08:20:41.693Z,20.60
2022-09-29T08:23:08.875Z,20.60
2022-09-29T08:25:36.279Z,20.60
2022-09-29T08:28:03.024Z,20.60
2022-09-29T08:30:30.034Z,20.60
2022-09-29T08:32:57.865Z,20.60
2022-09-29T08:35:25.708Z,20.60
2022-09-29T08:37:56.221Z,20.60
2022-09-29T08:40:23.343Z,20.60
2022-09-29T08:43:34.375Z,20.60
2022-09-29T08:46:32.305Z,20.60
2022-09-29T08:49:05.387Z,20.70
2022-09-29T08:51:54.305Z,20.70
2022-09-29T08:54:39.229Z,20.60
2022-09-29T08:57:06.854Z,20.70
2022-09-29T08:59:33.690Z,20.70
2022-09-29T09:02:25.098Z,20.70
2022-09-29T09:05:07.146Z,20.80
2022-09-29T09:07:55.082Z,20.80
2022-09-29T09:10:24.559Z,20.70
2022-09-29T09:13:24.916Z,20.70
2022-09-29T09:16:14.372Z,20.80
2022-09-29T09:18:59.885Z,20.80
2022-09-29T09:21:35.185Z,20.70
2022-09-29T09:24:08.333Z,20.80
2022-09-29T09:26:53.148Z,20.80
2022-09-29T09:29:33.807Z,20.80
2022-09-29T09:32:07.453Z,20.80
2022-09-29T09:34:45.140Z,20.80
2022-09-29T09:37:22.359Z,20.90
2022-09-29T09:40:19.131Z,20.80
2022-09-29T09:42:50.042Z,20.80
2022-09-29T09:45:48.923Z,20.80
2022-09-29T09:48:31.795Z,20.90
2022-09-29T09:51:20.762Z,20.80
2022-09-29T09:53:48.057Z,20.90
2022-09-29T09:56:16.686Z,20.90
2022-09-29T09:59:06.022Z,20.90
2022-09-29T10:01:33.370Z,20.90
2022-09-29T10:04:01.403Z,20.90
2022-09-29T10:06:29.525Z,20.90
2022-09-29T10:08:57.158Z,20.90
2022-09-29T10:11:26.536Z,20.90
2022-09-29T10:14:06.695Z,20.90
2022-09-29T10:16:47.365Z,20.90
2022-09-29T10:19:14.214Z,20.90
2022-09-29T10:21:42.248Z,20.90
2022-09-29T10:24:27.945Z,21.00
2022-09-29T10:26:55.888Z,21.00
2022-09-29T10:29:23.839Z,20.90
2022-09-29T10:32:06.271Z,21.00
2022-09-29T10:34:34.496Z,21.00
2022-09-29T10:37:03.684Z,21.00
2022-09-29T10:39:48.370Z,21.00
2022-09-29T10:42:29.781Z,20.90
2022-09-29T10:45:20.209Z,21.00
2022-09-29T10:47:58.826Z,21.00
2022-09-29T10:50:26.516Z,20.90
2022-09-29T10:53:00.023Z,21.00
2022-09-29T10:55:34.504Z,21.00
2022-09-29T10:58:45.396Z,21.00
2022-09-29T11:01:13.708Z,21.00
2022-09-29T11:03:48.261Z,20.90
2022-09-29T11:06:15.005Z,20.90
2022-09-29T11:09:01.695Z,20.90
2022-09-29T11:11:36.888Z,21.00
2022-09-29T11:14:04.465Z,20.90
2022-09-29T11:16:36.991Z,20.90
2022-09-29T11:19:11.673Z,20.90
2022-09-29T11:22:00.667Z,20.90
2022-09-29T11:24:46.074Z,20.90
2022-09-29T11:27:24.142Z,20.90
2022-09-29T11:30:15.574Z,20.90
2022-09-29T11:33:40.994Z,20.90
2022-09-29T11:36:23.599Z,20.90
2022-09-29T11:39:05.086Z,20.90
2022-09-29T11:41:49.981Z,20.90
2022-09-29T11:44:35.281Z,20.90
2022-09-29T11:47:28.444Z,20.90
2022-09-29T11:50:19.004Z,20.90
2022-09-29T11:53:09.980Z,21.00
2022-09-29T11:55:41.461Z,21.00
2022-09-29T11:58:22.955Z,20.90
2022-09-29T12:01:02.669Z,20.90
2022-09-29T12:04:09.143Z,20.90
2022-09-29T12:06:54.290Z,20.90
2022-09-29T12:09:28.466Z,20.90
2022-09-29T12:12:23.218Z,20.90
2022-09-29T12:15:00.353Z,20.90
2022-09-29T12:17:31.251Z,20.90
2022-09-29T12:20:14.803Z,20.90
2022-09-29T12:22:44.912Z,20.90
2022-09-29T12:25:17.404Z,20.90
2022-09-29T12:27:44.497Z,20.90
2022-09-29T12:30:30.639Z,20.90
2022-09-29T12:33:15.485Z,20.90
2022-09-29T12:36:38.030Z,20.80
2022-09-29T12:39:34.032Z,20.90
2022-09-29T12:42:16.051Z,20.80
2022-09-29T12:45:18.113Z,20.80
2022-09-29T12:48:05.154Z,20.80
2022-09-29T12:50:41.287Z,20.80
2022-09-29T12:53:17.517Z,20.80
2022-09-29T12:56:05.559Z,20.80
2022-09-29T12:58:53.401Z,20.90
2022-09-29T13:01:27.124Z,20.90
2022-09-29T13:04:21.977Z,20.90
2022-09-29T13:07:22.278Z,20.90
2022-09-29T13:10:02.661Z,20.90
2022-09-29T13:12:33.056Z,20.90
2022-09-29T13:15:22.037Z,20.90
2022-09-29T13:18:08.912Z,20.90
2022-09-29T13:21:09.273Z,20.80
2022-09-29T13:23:58.652Z,20.80
2022-09-29T13:26:43.058Z,20.80
2022-09-29T13:29:18.701Z,20.80
2022-09-29T13:31:46.635Z,20.70
2022-09-29T13:34:37.056Z,20.70
2022-09-29T13:37:14.806Z,20.70
2022-09-29T13:39:43.380Z,20.70
2022-09-29T13:42:38.987Z,20.70
2022-09-29T13:45:31.642Z,20.70
2022-09-29T13:48:04.215Z,20.70
2022-09-29T13:50:50.551Z,20.70
2022-09-29T13:53:31.343Z,20.70
2022-09-29T13:56:05.056Z,20.70
2022-09-29T13:58:33.757Z,20.70
2022-09-29T14:01:05.001Z,20.60
2022-09-29T14:03:40.042Z,20.60
2022-09-29T14:06:40.726Z,20.60
2022-09-29T14:09:08.072Z,20.60
2022-09-29T14:11:47.560Z,20.60
2022-09-29T14:14:21.502Z,20.50
2022-09-29T14:16:53.362Z,20.60
2022-09-29T14:19:43.305Z,20.60
2022-09-29T14:22:32.114Z,20.60
2022-09-29T14:25:08.091Z,20.60
2022-09-29T14:27:50.057Z,20.60
2022-09-29T14:30:18.929Z,20.60
2022-09-29T14:32:59.697Z,20.50
2022-09-29T14:35:37.103Z,20.60
2022-09-29T14:38:16.816Z,20.60
2022-09-29T14:41:03.220Z,20.60
2022-09-29T14:43:46.263Z,20.50
2022-09-29T14:46:50.785Z,20.60
2022-09-29T14:49:48.547Z,20.60
2022-09-29T14:52:40.259Z,20.60
2022-09-29T14:55:18.643Z,20.60
2022-09-29T14:57:45.344Z,20.60
2022-09-29T15:00:16.600Z,20.60
2022-09-29T15:02:44.831Z,20.60
2022-09-29T15:05:28.648Z,20.60
2022-09-29T15:07:58.178Z,20.60
2022-09-29T15:10:32.758Z,20.60
2022-09-29T15:13:39.230Z,20.60
2022-09-29T15:16:14.938Z,20.60
2022-09-29T15:18:41.766Z,20.60
2022-09-29T15:21:18.647Z,20.60
2022-09-29T15:23:57.694Z,20.60
2022-09-29T15:26:24.405Z,20.60
2022-09-29T15:28:51.230Z,20.60
2022-09-29T15:31:19.706Z,20.60
2022-09-29T15:33:47.875Z,20.60
2022-09-29T15:36:24.852Z,20.60
2022-09-29T15:39:02.765Z,20.60
2022-09-29T15:41:31.507Z,20.60
2022-09-29T15:44:01.556Z,20.60
2022-09-29T15:46:41.360Z,20.50
2022-09-29T15:49:16.814Z,20.60
2022-09-29T15:51:47.227Z,20.60
2022-09-29T15:54:14.578Z,20.50
2022-09-29T15:57:00.143Z,20.50
2022-09-29T15:59:42.155Z,20.50
2022-09-29T16:02:25.508Z,20.60
2022-09-29T16:04:56.775Z,20.60
2022-09-29T16:07:30.377Z,20.50
2022-09-29T16:10:10.127Z,20.60
2022-09-29T16:12:40.294Z,20.60
2022-09-29T16:15:07.789Z,20.60
2022-09-29T16:17:34.495Z,20.60
2022-09-29T16:20:01.683Z,20.60
2022-09-29T16:22:28.607Z,20.70
2022-09-29T16:25:18.454Z,20.60
2022-09-29T16:27:57.370Z,20.60
2022-09-29T16:30:26.538Z,20.70
2022-09-29T16:32:56.413Z,20.70
2022-09-29T16:35:41.879Z,20.70
2022-09-29T16:38:19.210Z,20.70
2022-09-29T16:40:46.318Z,20.70
2022-09-29T16:43:34.776Z,20.70
2022-09-29T16:46:02.460Z,20.70
2022-09-29T16:48:31.854Z,20.70
2022-09-29T16:51:05.708Z,20.70
2022-09-29T16:53:35.237Z,20.80
2022-09-29T16:56:35.436Z,20.80
2022-09-29T16:59:13.973Z,20.70
2022-09-29T17:01:42.541Z,20.80
2022-09-29T17:04:11.677Z,20.80
2022-09-29T17:06:42.170Z,20.70
2022-09-29T17:09:12.354Z,20.80
2022-09-29T17:11:41.707Z,20.80
2022-09-29T17:14:13.621Z,20.80
2022-09-29T17:16:42.098Z,20.80
2022-09-29T17:19:11.718Z,20.70
2022-09-29T17:21:40.006Z,20.80
2022-09-29T17:24:07.459Z,20.80
2022-09-29T17:27:04.330Z,20.80
2022-09-29T17:29:31.941Z,20.80
2022-09-29T17:32:02.448Z,20.70
2022-09-29T17:34:30.265Z,20.80
2022-09-29T17:36:59.945Z,20.70
2022-09-29T17:39:27.166Z,20.70
2022-09-29T17:41:54.434Z,20.70
2022-09-29T17:44:22.196Z,20.70
2022-09-29T17:46:49.550Z,20.70
2022-09-29T17:49:17.992Z,20.70
2022-09-29T17:51:44.890Z,20.70
2022-09-29T17:54:12.413Z,20.60
2022-09-29T17:56:42.403Z,20.70
2022-09-29T17:59:12.315Z,20.60
2022-09-29T18:01:40.320Z,20.60
2022-09-29T18:04:08.593Z,20.60
2022-09-29T18:06:37.978Z,20.60
2022-09-29T18:09:23.294Z,20.60
2022-09-29T18:11:50.284Z,20.60
2022-09-29T18:14:17.381Z,20.60
2022-09-29T18:16:44.091Z,20.60
2022-09-29T18:19:17.062Z,20.60
2022-09-29T18:21:44.197Z,20.60
2022-09-29T18:24:11.649Z,20.60
2022-09-29T18:26:40.238Z,20.60
2022-09-29T18:29:15.306Z,20.60
2022-09-29T18:31:42.136Z,20.70
2022-09-29T18:34:15.520Z,20.70
2022-09-29T18:36:42.629Z,20.70
2022-09-29T18:39:10.663Z,20.70
2022-09-29T18:41:37.372Z,20.70
2022-09-29T18:44:16.138Z,20.80
2022-09-29T18:46:43.710Z,20.80
2022-09-29T18:49:14.473Z,20.70
2022-09-29T18:51:42.236Z,20.70
2022-09-29T18:54:09.016Z,20.70
2022-09-29T18:56:35.787Z,20.70
2022-09-29T18:59:05.643Z,20.80
2022-09-29T19:01:32.601Z,20.70
2022-09-29T19:04:00.146Z,20.70
2022-09-29T19:06:26.927Z,20.70
2022-09-29T19:08:53.694Z,20.70
2022-09-29T19:11:21.803Z,20.80
2022-09-29T19:13:51.538Z,20.80
2022-09-29T19:16:18.517Z,20.80
2022-09-29T19:18:45.478Z,20.70
2022-09-29T19:21:13.131Z,20.70
2022-09-29T19:23:42.639Z,20.70
2022-09-29T19:26:11.296Z,20.70
2022-09-29T19:28:38.525Z,20.80
2022-09-29T19:31:12.024Z,20.80
2022-09-29T19:33:41.478Z,20.70
2022-09-29T19:36:10.778Z,20.70
2022-09-29T19:38:37.761Z,20.70
2022-09-29T19:41:04.857Z,20.70
2022-09-29T19:43:31.718Z,20.70
2022-09-29T19:45:58.461Z,20.80
2022-09-29T19:48:26.702Z,20.70
2022-09-29T19:51:15.855Z,20.80
2022-09-29T19:53:45.801Z,20.70
2022-09-29T19:56:16.937Z,20.70
2022-09-29T19:58:43.770Z,20.80
2022-09-29T20:01:11.880Z,20.70
2022-09-29T20:03:38.721Z,20.70
2022-09-29T20:06:06.659Z,20.70
2022-09-29T20:08:33.772Z,20.80
2022-09-29T20:11:07.752Z,20.70
2022-09-29T20:13:35.407Z,20.70
2022-09-29T20:16:02.664Z,20.80
2022-09-29T20:18:29.423Z,20.70
2022-09-29T20:20:56.463Z,20.70
2022-09-29T20:23:24.275Z,20.70
2022-09-29T20:25:59.596Z,20.70
2022-09-29T20:28:26.337Z,20.70
2022-09-29T20:30:59.383Z,20.70
2022-09-29T20:33:26.593Z,20.70
2022-09-29T20:35:53.287Z,20.70
2022-09-29T20:38:20.217Z,20.70
2022-09-29T20:40:49.106Z,20.70
2022-09-29T20:43:15.857Z,20.70
2022-09-29T20:45:43.340Z,20.70
2022-09-29T20:48:13.371Z,20.70
2022-09-29T20:50:40.109Z,20.70
2022-09-29T20:53:06.875Z,20.60
2022-09-29T20:55:35.479Z,20.70
2022-09-29T20:58:03.142Z,20.60
2022-09-29T21:00:30.281Z,20.70
2022-09-29T21:02:57.864Z,20.70
2022-09-29T21:05:24.661Z,20.60
2022-09-29T21:07:51.377Z,20.60
2022-09-29T21:10:18.551Z,20.60
2022-09-29T21:12:45.860Z,20.60
2022-09-29T21:15:12.609Z,20.60
2022-09-29T21:17:39.309Z,20.60
2022-09-29T21:20:06.546Z,20.60
2022-09-29T21:22:33.283Z,20.60
2022-09-29T21:24:59.979Z,20.60
2022-09-29T21:27:28.244Z,20.50
2022-09-29T21:29:54.950Z,20.60
2022-09-29T21:32:21.687Z,20.60
2022-09-29T21:34:48.830Z,20.50
2022-09-29T21:37:16.797Z,20.50
2022-09-29T21:39:43.792Z,20.60
2022-09-29T21:42:10.534Z,20.50
2022-09-29T21:44:37.245Z,20.60
2022-09-29T21:47:03.970Z,20.50
2022-09-29T21:49:30.659Z,20.50
2022-09-29T21:52:01.706Z,20.50
2022-09-29T21:54:30.240Z,20.50
2022-09-29T21:56:57.085Z,20.50
2022-09-29T21:59:24.279Z,20.50
2022-09-29T22:01:52.078Z,20.50
2022-09-29T22:04:19.348Z,20.50
2022-09-29T22:06:46.354Z,20.50
2022-09-29T22:09:18.257Z,20.40
2022-09-29T22:11:45.926Z,20.50
2022-09-29T22:14:13.234Z,20.50
2022-09-29T22:16:40.082Z,20.50
2022-09-29T22:19:23.705Z,20.50
2022-09-29T22:21:51.809Z,20.40
2022-09-29T22:24:18.533Z,20.40
2022-09-29T22:26:45.357Z,20.40
2022-09-29T22:29:13.375Z,20.50
2022-09-29T22:31:40.758Z,20.40
2022-09-29T22:34:07.868Z,20.50
2022-09-29T22:36:34.877Z,20.40
2022-09-29T22:39:02.133Z,20.40
2022-09-29T22:41:29.166Z,20.40
2022-09-29T22:43:57.196Z,20.40
2022-09-29T22:46:24.718Z,20.40
2022-09-29T22:48:51.722Z,20.40
2022-09-29T22:51:18.927Z,20.40
2022-09-29T22:53:45.998Z,20.40
2022-09-29T22:56:16.115Z,20.40
2022-09-29T22:58:43.257Z,20.40
2022-09-29T23:01:13.618Z,20.40
2022-09-29T23:03:41.438Z,20.40
2022-09-29T23:06:08.326Z,20.30
2022-09-29T23:08:35.334Z,20.40
2022-09-29T23:11:05.490Z,20.30
2022-09-29T23:13:34.400Z,20.30
2022-09-29T23:16:04.574Z,20.30
2022-09-29T23:18:34.041Z,20.30
2022-09-29T23:21:04.728Z,20.30
2022-09-29T23:23:32.106Z,20.30
2022-09-29T23:25:59.533Z,20.30
2022-09-29T23:28:26.310Z,20.30
2022-09-29T23:30:53.198Z,20.30
2022-09-29T23:33:20.118Z,20.30
2022-09-29T23:35:47.267Z,20.30
2022-09-29T23:38:32.357Z,20.30
2022-09-29T23:40:59.095Z,20.30
2022-09-29T23:43:25.900Z,20.30
2022-09-29T23:45:52.633Z,20.30
2022-09-29T23:48:19.582Z,20.30
2022-09-29T23:50:46.318Z,20.30
2022-09-29T23:53:13.070Z,20.30
2022-09-29T23:55:39.955Z,20.30
2022-09-29T23:58:06.700Z,20.20
